Time;durP1;ratioP1;P1;durP2;ratioP2;P2;SDS_P1;SDS_P2;PMS_P1;PMS_P2;Temp;Humidity;BMP_temperature;BMP_pressure;BME280_temperature;BME280_humidity;BME280_pressure;Samples;Min_cycle;Max_cycle;Signal;HPM_P1;HPM_P2
2021/11/03 00:00:08;;;;;;;8.40;6.00;;;;;;;4.05;100.00;99468.66;682338;28;1267;-51
2021/11/03 00:00:29;;;;;;;9.52;6.40;;;;;;;4.11;100.00;99472.97;683947;28;3566;-52
2021/11/03 00:00:49;;;;;;;9.27;6.22;;;;;;;4.07;100.00;99472.13;683614;28;1540;-52
2021/11/03 00:01:13;;;;;;;9.63;6.00;;;;;;;4.03;100.00;99462.63;684297;28;1237;-49
2021/11/03 00:01:36;;;;;;;9.02;6.40;;;;;;;4.08;100.00;99468.69;684654;28;4542;-48
2021/11/03 00:01:56;;;;;;;9.40;6.32;;;;;;;4.14;100.00;99466.94;684013;28;1089;-52
2021/11/03 00:02:17;;;;;;;9.07;6.38;;;;;;;4.10;100.00;99471.28;684513;28;1021;-52
2021/11/03 00:02:37;;;;;;;9.33;6.53;;;;;;;4.06;100.00;99460.03;683793;28;1147;-49
2021/11/03 00:02:58;;;;;;;8.00;6.07;;;;;;;4.03;100.00;99466.91;684289;28;1049;-48
2021/11/03 00:03:18;;;;;;;8.35;6.03;;;;;;;4.02;100.00;99463.50;683146;28;2061;-51
2021/11/03 00:03:40;;;;;;;9.23;6.43;;;;;;;3.98;100.00;99461.75;680990;28;2263;-49
2021/11/03 00:04:01;;;;;;;9.63;6.50;;;;;;;3.98;100.00;99464.34;680653;28;1317;-48
2021/11/03 00:04:21;;;;;;;9.50;6.47;;;;;;;3.96;100.00;99457.44;681635;28;5490;-49
2021/11/03 00:04:42;;;;;;;9.70;6.57;;;;;;;3.96;100.00;99460.00;681724;28;2171;-49
2021/11/03 00:05:04;;;;;;;9.38;7.20;;;;;;;4.02;100.00;99462.63;683727;28;1052;-48
2021/11/03 00:05:24;;;;;;;9.05;7.05;;;;;;;4.05;100.00;99452.28;683797;28;1017;-50
2021/11/03 00:05:46;;;;;;;8.13;6.40;;;;;;;4.13;100.00;99460.09;683762;28;1154;-51
2021/11/03 00:06:06;;;;;;;8.27;6.40;;;;;;;4.10;100.00;99458.34;684181;28;3308;-49
2021/11/03 00:06:27;;;;;;;11.57;6.90;;;;;;;4.06;100.00;99449.69;683036;28;3629;-48
2021/11/03 00:06:48;;;;;;;9.77;6.72;;;;;;;4.06;100.00;99462.63;681611;28;1147;-49
2021/11/03 00:07:11;;;;;;;8.70;6.63;;;;;;;4.02;100.00;99455.72;678571;29;1429;-49
2021/11/03 00:07:31;;;;;;;8.52;6.57;;;;;;;4.03;100.00;99454.88;678126;29;4577;-51
2021/11/03 00:07:54;;;;;;;9.70;6.80;;;;;;;4.03;100.00;99454.88;678483;29;1037;-50
2021/11/03 00:08:17;;;;;;;10.15;6.70;;;;;;;4.04;100.00;99456.59;678162;29;1501;-48
2021/11/03 00:08:38;;;;;;;9.77;6.70;;;;;;;4.03;100.00;99454.00;681118;28;1143;-50
2021/11/03 00:09:03;;;;;;;9.35;6.50;;;;;;;3.99;100.00;99447.97;684523;28;1317;-52
2021/11/03 00:09:25;;;;;;;9.20;6.50;;;;;;;4.00;100.00;99454.88;683804;28;3634;-50
2021/11/03 00:09:45;;;;;;;8.32;6.30;;;;;;;4.05;100.00;99453.13;684071;28;1336;-51
2021/11/03 00:10:08;;;;;;;8.95;6.78;;;;;;;4.10;100.00;99453.16;684267;28;1257;-51
2021/11/03 00:10:29;;;;;;;8.82;6.80;;;;;;;4.12;100.00;99454.03;683894;28;4439;-53
2021/11/03 00:10:51;;;;;;;8.80;6.77;;;;;;;4.11;100.00;99456.59;684570;28;1381;-50
2021/11/03 00:11:12;;;;;;;8.43;6.30;;;;;;;4.07;100.00;99451.44;684754;28;1136;-49
2021/11/03 00:11:34;;;;;;;8.45;6.47;;;;;;;4.06;100.00;99448.84;684987;28;1192;-52
2021/11/03 00:11:54;;;;;;;8.25;6.20;;;;;;;4.05;100.00;99447.13;683684;28;1930;-48
2021/11/03 00:12:16;;;;;;;9.05;6.72;;;;;;;4.06;100.00;99444.53;684785;28;3053;-49
2021/11/03 00:12:36;;;;;;;8.70;6.43;;;;;;;4.03;100.00;99446.22;684054;28;2446;-53
2021/11/03 00:12:57;;;;;;;9.02;6.50;;;;;;;4.01;100.00;99448.81;684182;28;1278;-53
2021/11/03 00:13:20;;;;;;;10.45;6.63;;;;;;;4.03;100.00;99449.69;684583;28;1096;-49
2021/11/03 00:13:40;;;;;;;9.48;6.90;;;;;;;4.06;100.00;99449.69;683269;28;4964;-49
2021/11/03 00:14:01;;;;;;;10.67;6.97;;;;;;;4.09;100.00;99449.69;684888;28;1141;-49
2021/11/03 00:14:21;;;;;;;11.13;7.18;;;;;;;4.13;100.00;99447.16;684184;28;1124;-51
2021/11/03 00:14:41;;;;;;;9.00;6.67;;;;;;;4.15;100.00;99448.00;683977;28;1127;-51
2021/11/03 00:15:03;;;;;;;8.00;6.00;;;;;;;4.19;100.00;99445.41;684654;28;3030;-49
2021/11/03 00:15:23;;;;;;;8.40;6.10;;;;;;;4.22;100.00;99445.44;685434;28;3547;-48
2021/11/03 00:15:43;;;;;;;8.40;6.27;;;;;;;4.22;100.00;99448.03;684881;28;1265;-50
2021/11/03 00:16:04;;;;;;;8.88;6.63;;;;;;;4.23;100.00;99448.88;686751;28;1118;-51
2021/11/03 00:16:25;;;;;;;7.78;6.07;;;;;;;4.25;100.00;99454.91;686230;28;4548;-49
2021/11/03 00:16:45;;;;;;;8.73;6.30;;;;;;;4.26;100.00;99446.28;684988;28;1301;-50
2021/11/03 00:17:07;;;;;;;9.00;6.17;;;;;;;4.27;100.00;99445.44;686433;28;1345;-49
2021/11/03 00:17:30;;;;;;;8.00;6.10;;;;;;;4.30;100.00;99447.16;684120;28;1060;-48
2021/11/03 00:17:50;;;;;;;8.57;6.13;;;;;;;4.31;100.00;99439.41;685967;28;1423;-50
2021/11/03 00:18:11;;;;;;;8.00;6.40;;;;;;;4.32;100.00;99446.31;686460;28;3947;-51
2021/11/03 00:18:31;;;;;;;7.32;5.93;;;;;;;4.24;100.00;99442.84;686057;28;1254;-52
2021/11/03 00:18:52;;;;;;;7.50;5.80;;;;;;;4.18;100.00;99453.16;685712;28;1158;-48
2021/11/03 00:19:12;;;;;;;9.43;6.20;;;;;;;4.14;100.00;99446.25;687030;28;1329;-49
2021/11/03 00:19:33;;;;;;;11.37;6.50;;;;;;;4.17;100.00;99444.56;686656;28;4647;-52
2021/11/03 00:19:53;;;;;;;9.80;6.40;;;;;;;4.22;100.00;99447.13;684426;28;1411;-52
2021/11/03 00:20:14;;;;;;;8.20;6.40;;;;;;;4.25;100.00;99445.44;684571;28;1313;-52
2021/11/03 00:20:35;;;;;;;7.63;6.03;;;;;;;4.30;100.00;99450.59;683482;28;3238;-48
2021/11/03 00:20:57;;;;;;;8.30;6.20;;;;;;;4.30;100.00;99453.19;686140;28;3731;-51
2021/11/03 00:21:18;;;;;;;7.97;5.90;;;;;;;4.25;100.00;99449.72;685656;28;3564;-50
2021/11/03 00:21:38;;;;;;;8.20;6.10;;;;;;;4.20;100.00;99452.31;682878;28;1473;-52
2021/11/03 00:21:58;;;;;;;8.98;5.93;;;;;;;4.18;100.00;99450.59;682431;28;1095;-49
2021/11/03 00:22:19;;;;;;;8.37;5.87;;;;;;;4.21;100.00;99448.88;680118;28;4538;-51
2021/11/03 00:22:40;;;;;;;8.70;6.15;;;;;;;4.22;100.00;99449.72;680127;28;1633;-49
2021/11/03 00:23:00;;;;;;;8.88;6.05;;;;;;;4.21;100.00;99458.34;681526;28;1258;-49
2021/11/03 00:23:21;;;;;;;8.87;5.87;;;;;;;4.15;100.00;99454.03;681856;28;1179;-51
2021/11/03 00:23:41;;;;;;;8.60;6.10;;;;;;;4.13;100.00;99452.31;680872;28;1242;-53
2021/11/03 00:24:03;;;;;;;7.80;6.15;;;;;;;4.11;100.00;99447.13;681141;28;3160;-51
2021/11/03 00:24:23;;;;;;;8.43;6.40;;;;;;;4.13;100.00;99452.31;681435;28;3569;-52
2021/11/03 00:24:45;;;;;;;8.63;6.45;;;;;;;4.16;100.00;99454.91;684437;28;1173;-53
2021/11/03 00:25:07;;;;;;;8.25;6.20;;;;;;;4.17;100.00;99456.63;684057;28;1131;-51
2021/11/03 00:25:27;;;;;;;8.82;6.25;;;;;;;4.18;100.00;99448.88;683808;28;4505;-50
2021/11/03 00:25:48;;;;;;;8.27;6.32;;;;;;;4.17;100.00;99451.47;683658;28;1160;-50
2021/11/03 00:26:09;;;;;;;8.60;6.40;;;;;;;4.17;100.00;99447.16;684230;28;1325;-53
2021/11/03 00:26:29;;;;;;;7.97;6.60;;;;;;;4.14;100.00;99449.72;683798;28;1368;-51
2021/11/03 00:26:50;;;;;;;8.23;6.60;;;;;;;4.13;100.00;99447.16;686118;28;1961;-50
2021/11/03 00:27:11;;;;;;;9.50;6.63;;;;;;;4.12;100.00;99448.00;683364;28;2133;-51
2021/11/03 00:27:31;;;;;;;8.57;6.70;;;;;;;4.11;100.00;99451.44;683998;28;1232;-52
2021/11/03 00:27:52;;;;;;;10.18;6.40;;;;;;;4.14;100.00;99447.16;683387;28;1133;-49
2021/11/03 00:28:18;;;;;;;9.27;5.97;;;;;;;4.19;100.00;99452.31;683484;28;1191;-53
2021/11/03 00:28:40;;;;;;;8.50;6.68;;;;;;;4.18;100.00;99448.00;682912;28;4819;-51
2021/11/03 00:29:01;;;;;;;9.02;6.65;;;;;;;4.15;100.00;99443.69;683357;28;1143;-51
2021/11/03 00:29:21;;;;;;;8.77;6.63;;;;;;;4.18;100.00;99443.69;681780;28;1223;-49
2021/11/03 00:29:42;;;;;;;8.67;6.40;;;;;;;4.15;100.00;99442.81;681242;28;1359;-53
2021/11/03 00:30:03;;;;;;;8.85;6.20;;;;;;;4.18;100.00;99448.00;682190;28;3771;-49
2021/11/03 00:30:24;;;;;;;9.50;6.10;;;;;;;4.15;100.00;99450.59;678434;28;2381;-53
2021/11/03 00:30:46;;;;;;;10.03;6.20;;;;;;;4.15;100.00;99446.25;678250;29;1424;-49
2021/11/03 00:31:07;;;;;;;9.60;6.40;;;;;;;4.17;100.00;99446.28;678691;28;1168;-48
2021/11/03 00:31:28;;;;;;;8.98;6.35;;;;;;;4.18;100.00;99453.16;680388;28;4507;-50
2021/11/03 00:31:48;;;;;;;8.93;6.10;;;;;;;4.15;100.00;99448.00;681033;28;1986;-50
2021/11/03 00:32:09;;;;;;;7.97;6.13;;;;;;;4.16;100.00;99444.56;682846;28;1377;-49
2021/11/03 00:32:29;;;;;;;8.02;6.32;;;;;;;4.15;100.00;99445.41;684176;28;1022;-53
2021/11/03 00:32:50;;;;;;;8.73;6.43;;;;;;;4.10;100.00;99448.00;683329;28;3000;-49
2021/11/03 00:33:11;;;;;;;8.52;6.55;;;;;;;4.08;100.00;99441.94;683880;28;2097;-53
2021/11/03 00:33:32;;;;;;;8.63;6.40;;;;;;;4.06;100.00;99446.25;683548;28;1310;-52
2021/11/03 00:33:53;;;;;;;9.68;6.20;;;;;;;4.02;100.00;99444.53;683677;28;1144;-52
2021/11/03 00:34:13;;;;;;;9.23;6.18;;;;;;;4.00;100.00;99449.69;683791;28;1274;-49
2021/11/03 00:34:35;;;;;;;9.03;6.30;;;;;;;3.97;100.00;99444.50;683565;28;4441;-50
2021/11/03 00:34:55;;;;;;;10.05;6.63;;;;;;;3.97;100.00;99444.50;684520;28;1401;-52
2021/11/03 00:35:16;;;;;;;9.87;6.53;;;;;;;3.92;100.00;99439.31;683125;28;1195;-54
2021/11/03 00:35:37;;;;;;;9.52;6.72;;;;;;;3.91;100.00;99441.91;681958;28;1153;-54
2021/11/03 00:35:59;;;;;;;9.03;6.73;;;;;;;3.94;100.00;99439.31;677809;28;3556;-49
2021/11/03 00:36:19;;;;;;;9.60;6.90;;;;;;;3.96;100.00;99435.03;679399;28;3580;-52
2021/11/03 00:36:40;;;;;;;10.00;6.70;;;;;;;3.99;100.00;99440.22;679201;28;1469;-49
2021/11/03 00:37:00;;;;;;;9.03;6.70;;;;;;;4.01;100.00;99437.63;678713;28;1296;-51
2021/11/03 00:37:20;;;;;;;9.13;6.82;;;;;;;4.01;100.00;99435.88;675736;29;4896;-50
2021/11/03 00:37:41;;;;;;;9.33;6.90;;;;;;;4.02;100.00;99436.78;678606;28;1077;-52
2021/11/03 00:38:02;;;;;;;9.20;6.78;;;;;;;3.99;100.00;99437.63;681691;28;1342;-50
2021/11/03 00:38:22;;;;;;;9.45;6.90;;;;;;;3.99;100.00;99437.63;681114;28;1299;-50
2021/11/03 00:38:43;;;;;;;9.70;7.23;;;;;;;3.94;100.00;99434.16;680610;28;3406;-54
2021/11/03 00:39:03;;;;;;;9.32;6.70;;;;;;;3.91;100.00;99434.16;681570;28;1999;-54
2021/11/03 00:39:25;;;;;;;8.57;6.47;;;;;;;3.90;100.00;99432.41;682955;28;4111;-53
2021/11/03 00:39:46;;;;;;;8.73;6.60;;;;;;;3.92;100.00;99428.97;683066;28;1190;-53
2021/11/03 00:40:07;;;;;;;9.33;7.10;;;;;;;3.95;100.00;99425.53;684009;28;1191;-51
2021/11/03 00:40:28;;;;;;;9.45;6.93;;;;;;;3.96;100.00;99429.88;682968;28;4360;-49
2021/11/03 00:40:49;;;;;;;8.40;6.57;;;;;;;4.02;100.00;99427.28;681311;28;1185;-54
2021/11/03 00:41:10;;;;;;;8.43;6.75;;;;;;;4.04;100.00;99435.91;681024;28;1305;-51
2021/11/03 00:41:31;;;;;;;9.50;6.85;;;;;;;4.04;100.00;99424.69;681761;28;1143;-54
2021/11/03 00:41:52;;;;;;;9.13;6.70;;;;;;;4.03;100.00;99425.53;680554;28;1873;-53
2021/11/03 00:42:13;;;;;;;8.98;6.45;;;;;;;4.03;100.00;99426.44;681752;28;3442;-50
2021/11/03 00:42:34;;;;;;;9.43;6.50;;;;;;;4.04;100.00;99420.41;681710;28;1322;-51
2021/11/03 00:42:54;;;;;;;9.40;6.47;;;;;;;4.06;100.00;99428.16;681999;28;2401;-51
2021/11/03 00:43:16;;;;;;;9.33;6.40;;;;;;;4.04;100.00;99425.56;683755;28;1243;-49
2021/11/03 00:43:36;;;;;;;9.32;6.45;;;;;;;4.05;100.00;99429.88;680931;28;4514;-51
2021/11/03 00:43:57;;;;;;;9.10;6.60;;;;;;;4.03;100.00;99422.97;679445;28;1314;-51
2021/11/03 00:44:19;;;;;;;9.73;6.57;;;;;;;4.00;100.00;99423.84;677868;29;1219;-52
2021/11/03 00:44:40;;;;;;;9.10;6.15;;;;;;;4.03;100.00;99428.13;678350;28;2139;-52
2021/11/03 00:45:00;;;;;;;8.68;6.45;;;;;;;4.02;100.00;99421.25;678081;29;3403;-51
2021/11/03 00:45:21;;;;;;;8.77;6.72;;;;;;;4.00;100.00;99418.66;678118;29;1455;-52
2021/11/03 00:45:42;;;;;;;8.20;6.47;;;;;;;4.03;100.00;99428.13;676288;29;1444;-51
2021/11/03 00:46:03;;;;;;;8.83;6.73;;;;;;;4.04;100.00;99423.00;678507;28;1447;-53
2021/11/03 00:46:26;;;;;;;9.07;6.80;;;;;;;4.06;100.00;99429.00;678023;28;4769;-53
2021/11/03 00:46:48;;;;;;;9.13;6.38;;;;;;;4.06;100.00;99423.84;676128;29;1335;-51
2021/11/03 00:47:10;;;;;;;8.60;6.20;;;;;;;4.11;100.00;99425.56;677889;29;1196;-49
2021/11/03 00:47:31;;;;;;;8.93;6.25;;;;;;;4.12;100.00;99419.53;679610;28;1563;-52
2021/11/03 00:47:52;;;;;;;8.40;6.15;;;;;;;4.15;100.00;99419.53;676325;28;3121;-52
2021/11/03 00:48:14;;;;;;;8.38;6.25;;;;;;;4.17;100.00;99423.00;674690;29;1438;-51
2021/11/03 00:48:35;;;;;;;7.93;6.00;;;;;;;4.15;100.00;99422.13;674372;29;1648;-54
2021/11/03 00:48:56;;;;;;;8.40;6.38;;;;;;;4.16;100.00;99419.53;673378;29;1308;-51
2021/11/03 00:49:18;;;;;;;7.90;6.03;;;;;;;4.17;100.00;99421.28;673928;29;1238;-50
2021/11/03 00:49:41;;;;;;;8.35;5.75;;;;;;;4.10;100.00;99424.72;676547;29;4919;-51
2021/11/03 00:50:03;;;;;;;9.32;6.07;;;;;;;4.07;100.00;99420.41;679706;28;1326;-51
2021/11/03 00:50:25;;;;;;;8.90;6.28;;;;;;;4.07;100.00;99425.56;681605;28;1355;-53
2021/11/03 00:50:47;;;;;;;9.35;6.10;;;;;;;4.07;100.00;99420.41;677511;29;3202;-55
2021/11/03 00:51:07;;;;;;;8.55;6.20;;;;;;;4.06;100.00;99416.09;676657;29;3592;-52
2021/11/03 00:51:29;;;;;;;8.38;6.30;;;;;;;4.03;100.00;99429.00;676293;29;1332;-52
2021/11/03 00:51:50;;;;;;;8.45;6.25;;;;;;;3.98;100.00;99420.38;672400;29;1978;-54
2021/11/03 00:52:11;;;;;;;8.83;6.30;;;;;;;4.00;100.00;99429.00;674969;29;1860;-54
2021/11/03 00:52:32;;;;;;;9.87;6.40;;;;;;;4.06;100.00;99423.00;675781;29;4850;-52
2021/11/03 00:52:53;;;;;;;7.93;5.90;;;;;;;4.14;100.00;99422.97;678741;28;1207;-53
2021/11/03 00:53:14;;;;;;;7.63;6.20;;;;;;;4.05;100.00;99422.09;682133;28;1255;-52
2021/11/03 00:53:34;;;;;;;8.43;5.88;;;;;;;4.02;100.00;99422.09;679997;28;3184;-51
2021/11/03 00:53:55;;;;;;;7.67;5.67;;;;;;;3.98;100.00;99425.53;680939;28;3649;-50
2021/11/03 00:54:16;;;;;;;8.27;5.93;;;;;;;4.01;100.00;99419.53;678236;28;1299;-54
2021/11/03 00:54:37;;;;;;;9.18;6.28;;;;;;;3.97;100.00;99421.22;678476;28;1084;-49
2021/11/03 00:54:58;;;;;;;9.23;6.30;;;;;;;3.98;100.00;99425.53;679955;28;1360;-52
2021/11/03 00:55:19;;;;;;;8.15;6.20;;;;;;;4.00;100.00;99425.53;680342;28;4628;-49
2021/11/03 00:55:41;;;;;;;9.45;6.18;;;;;;;4.05;100.00;99416.94;680413;28;1211;-52
2021/11/03 00:56:02;;;;;;;9.48;5.80;;;;;;;4.07;100.00;99423.00;682112;28;1224;-54
2021/11/03 00:56:23;;;;;;;9.15;6.05;;;;;;;4.02;100.00;99416.94;680691;28;1370;-51
2021/11/03 00:56:46;;;;;;;7.40;5.85;;;;;;;4.00;100.00;99418.66;678190;28;3489;-50
2021/11/03 00:57:08;;;;;;;7.93;6.03;;;;;;;4.00;100.00;99423.84;675288;29;1350;-54
2021/11/03 00:57:28;;;;;;;8.27;6.27;;;;;;;4.06;100.00;99418.66;676321;29;1174;-53
2021/11/03 00:57:48;;;;;;;8.40;6.15;;;;;;;4.14;100.00;99425.56;675242;29;1174;-50
2021/11/03 00:58:10;;;;;;;7.90;5.80;;;;;;;4.15;100.00;99422.13;674216;29;1209;-51
2021/11/03 00:58:30;;;;;;;8.65;6.22;;;;;;;4.15;100.00;99425.56;677183;28;4432;-54
2021/11/03 00:58:51;;;;;;;7.90;6.13;;;;;;;4.16;100.00;99424.72;679121;28;996;-52
2021/11/03 00:59:11;;;;;;;7.53;5.97;;;;;;;4.15;100.00;99427.31;679383;28;1160;-52
2021/11/03 00:59:31;;;;;;;8.47;5.90;;;;;;;4.06;100.00;99423.84;678019;29;3060;-50
2021/11/03 00:59:52;;;;;;;7.93;5.60;;;;;;;3.99;100.00;99427.28;678721;28;3479;-52
2021/11/03 01:00:17;;;;;;;8.10;6.00;;;;;;;3.99;100.00;99437.63;679218;28;1288;-54
2021/11/03 01:00:37;;;;;;;7.85;6.45;;;;;;;3.93;100.00;99427.25;680653;28;1076;-49
2021/11/03 01:00:58;;;;;;;8.60;6.10;;;;;;;3.88;100.00;99428.97;676938;29;1130;-53
2021/11/03 01:01:18;;;;;;;9.73;6.43;;;;;;;3.85;100.00;99435.00;676048;28;4387;-51
2021/11/03 01:01:39;;;;;;;8.85;6.38;;;;;;;3.85;100.00;99435.00;678438;28;1212;-51
2021/11/03 01:02:01;;;;;;;9.07;6.50;;;;;;;3.87;100.00;99438.44;674107;29;1362;-52
2021/11/03 01:02:22;;;;;;;7.97;6.13;;;;;;;3.96;100.00;99440.22;673744;29;1043;-51
2021/11/03 01:02:45;;;;;;;8.27;6.10;;;;;;;4.02;100.00;99439.34;675489;29;3432;-50
2021/11/03 01:03:07;;;;;;;9.40;6.07;;;;;;;4.11;100.00;99436.78;673680;29;1276;-51
2021/11/03 01:03:27;;;;;;;8.63;6.07;;;;;;;4.11;100.00;99433.34;674244;29;1300;-50
2021/11/03 01:03:48;;;;;;;8.80;5.97;;;;;;;4.07;100.00;99430.75;674010;29;1405;-50
2021/11/03 01:04:08;;;;;;;8.80;6.00;;;;;;;4.04;100.00;99430.75;675855;29;1164;-50
2021/11/03 01:04:29;;;;;;;9.33;6.10;;;;;;;4.03;100.00;99441.06;673937;29;4526;-52
2021/11/03 01:04:52;;;;;;;8.45;6.47;;;;;;;4.04;100.00;99441.09;675224;29;1243;-50
2021/11/03 01:05:16;;;;;;;9.38;6.25;;;;;;;4.09;100.00;99439.34;673048;29;1217;-49
2021/11/03 01:05:38;;;;;;;8.30;6.20;;;;;;;4.12;100.00;99438.50;673448;29;2583;-49
2021/11/03 01:05:59;;;;;;;8.30;6.20;;;;;;;4.14;100.00;99443.69;673934;29;2195;-53
2021/11/03 01:06:20;;;;;;;8.98;6.25;;;;;;;4.19;100.00;99439.38;675580;29;1078;-53
2021/11/03 01:06:41;;;;;;;8.77;6.30;;;;;;;4.23;100.00;99441.13;676988;29;1062;-52
2021/11/03 01:07:03;;;;;;;9.23;6.68;;;;;;;4.20;100.00;99434.22;679691;28;1293;-52
2021/11/03 01:07:24;;;;;;;8.90;6.40;;;;;;;4.17;100.00;99441.13;681058;28;4658;-53
2021/11/03 01:07:44;;;;;;;8.73;6.20;;;;;;;4.15;100.00;99437.66;684606;28;1330;-50
2021/11/03 01:08:09;;;;;;;8.60;6.45;;;;;;;4.09;100.00;99436.78;687045;28;1163;-49
2021/11/03 01:08:29;;;;;;;10.34;6.40;;;;;;;4.05;100.00;99437.63;683531;28;2993;-51
2021/11/03 01:08:49;;;;;;;9.73;6.37;;;;;;;4.01;100.00;99435.88;683063;28;4008;-51
2021/11/03 01:09:10;;;;;;;9.27;6.73;;;;;;;3.98;100.00;99440.22;680471;28;1243;-51
2021/11/03 01:09:30;;;;;;;9.65;6.70;;;;;;;3.95;100.00;99438.47;681395;28;1379;-55
2021/11/03 01:09:51;;;;;;;8.60;6.50;;;;;;;3.98;100.00;99443.66;680903;28;1264;-50
2021/11/03 01:10:11;;;;;;;9.50;6.50;;;;;;;3.99;100.00;99442.78;681519;28;1056;-51
2021/11/03 01:10:32;;;;;;;8.98;6.43;;;;;;;3.92;100.00;99444.50;683575;28;5007;-53
2021/11/03 01:10:53;;;;;;;8.77;6.43;;;;;;;3.86;100.00;99447.09;680242;28;1112;-51
2021/11/03 01:11:14;;;;;;;9.20;6.35;;;;;;;3.84;100.00;99442.75;683388;28;1285;-50
2021/11/03 01:11:35;;;;;;;11.70;6.90;;;;;;;3.80;100.00;99441.88;680375;28;3328;-53
2021/11/03 01:11:56;;;;;;;10.02;6.70;;;;;;;3.77;100.00;99444.47;681107;28;1976;-50
2021/11/03 01:12:18;;;;;;;9.13;6.57;;;;;;;3.77;100.00;99447.03;681385;28;1308;-52
2021/11/03 01:12:40;;;;;;;9.13;6.50;;;;;;;3.79;100.00;99441.88;678824;28;2163;-53
2021/11/03 01:13:00;;;;;;;9.90;6.75;;;;;;;3.75;100.00;99441.88;679618;28;1113;-53
2021/11/03 01:13:24;;;;;;;9.23;6.40;;;;;;;3.79;100.00;99447.03;681634;28;4638;-51
2021/11/03 01:13:44;;;;;;;9.57;6.85;;;;;;;3.86;100.00;99438.44;680749;28;1165;-51
2021/11/03 01:14:07;;;;;;;9.40;6.67;;;;;;;3.90;100.00;99432.41;677680;28;1301;-53
2021/11/03 01:14:28;;;;;;;10.23;7.20;;;;;;;3.89;100.00;99433.28;678876;28;3047;-51
2021/11/03 01:14:48;;;;;;;9.60;6.50;;;;;;;3.88;100.00;99442.75;679675;28;3358;-52
2021/11/03 01:15:11;;;;;;;8.90;6.20;;;;;;;3.87;100.00;99443.63;681608;28;1353;-53
2021/11/03 01:15:32;;;;;;;8.35;6.30;;;;;;;3.84;100.00;99446.19;683100;28;1131;-49
2021/11/03 01:15:57;;;;;;;8.90;6.50;;;;;;;3.81;100.00;99440.13;683676;28;1173;-50
2021/11/03 01:16:17;;;;;;;11.30;6.85;;;;;;;3.79;100.00;99444.47;683475;28;1253;-51
2021/11/03 01:16:39;;;;;;;10.10;6.72;;;;;;;3.79;100.00;99444.47;683774;28;6499;-52
2021/11/03 01:16:59;;;;;;;10.50;6.90;;;;;;;3.78;100.00;99437.56;680359;28;3032;-50
2021/11/03 01:17:20;;;;;;;10.70;6.60;;;;;;;3.76;100.00;99442.72;681106;28;3336;-50
2021/11/03 01:17:40;;;;;;;10.35;6.47;;;;;;;3.82;100.00;99441.88;680813;28;2027;-54
2021/11/03 01:18:01;;;;;;;8.90;6.40;;;;;;;3.87;100.00;99443.63;677267;28;1292;-49
2021/11/03 01:18:22;;;;;;;7.97;6.22;;;;;;;3.98;100.00;99441.06;678502;28;1044;-50
2021/11/03 01:18:42;;;;;;;9.90;6.72;;;;;;;3.91;100.00;99441.91;681314;28;1162;-49
2021/11/03 01:19:03;;;;;;;10.37;6.47;;;;;;;3.88;100.00;99440.19;679538;28;1101;-50
2021/11/03 01:19:24;;;;;;;8.88;6.00;;;;;;;3.84;100.00;99446.19;677608;28;4458;-50
2021/11/03 01:19:44;;;;;;;9.03;6.20;;;;;;;3.84;100.00;99441.03;679000;28;1298;-49
2021/11/03 01:20:08;;;;;;;9.55;6.82;;;;;;;3.81;100.00;99438.44;681491;28;1179;-50
2021/11/03 01:20:29;;;;;;;10.38;6.55;;;;;;;3.81;100.00;99440.13;681910;28;3354;-51
2021/11/03 01:20:49;;;;;;;9.27;6.60;;;;;;;3.82;100.00;99447.03;682540;28;3432;-51
2021/11/03 01:21:09;;;;;;;8.65;6.50;;;;;;;3.83;100.00;99441.03;683386;28;1349;-52
2021/11/03 01:21:31;;;;;;;8.10;6.20;;;;;;;3.90;100.00;99441.06;686535;28;1419;-50
2021/11/03 01:21:51;;;;;;;9.00;6.57;;;;;;;3.94;100.00;99449.66;685678;28;1084;-53
2021/11/03 01:22:12;;;;;;;9.43;6.63;;;;;;;3.90;100.00;99438.47;686788;28;1266;-51
2021/11/03 01:22:32;;;;;;;8.63;6.30;;;;;;;3.87;100.00;99441.03;685661;28;4409;-50
2021/11/03 01:22:54;;;;;;;8.80;6.30;;;;;;;3.86;100.00;99451.38;686351;28;1295;-50
2021/11/03 01:23:14;;;;;;;9.52;6.50;;;;;;;3.86;100.00;99443.63;683821;28;1891;-50
2021/11/03 01:23:37;;;;;;;9.47;6.50;;;;;;;3.94;100.00;99441.06;682108;28;4056;-51
2021/11/03 01:23:58;;;;;;;9.52;6.85;;;;;;;3.94;100.00;99441.91;683912;28;1114;-50
2021/11/03 01:24:19;;;;;;;9.85;6.70;;;;;;;3.89;100.00;99441.91;684218;28;1455;-50
2021/11/03 01:24:39;;;;;;;9.45;6.32;;;;;;;3.89;100.00;99439.31;682272;28;1049;-51
2021/11/03 01:24:59;;;;;;;9.00;6.30;;;;;;;3.90;100.00;99442.75;681140;28;1516;-51
2021/11/03 01:25:21;;;;;;;9.00;6.60;;;;;;;3.88;100.00;99442.75;680215;28;5387;-50
2021/11/03 01:25:44;;;;;;;8.70;6.45;;;;;;;3.84;100.00;99442.75;681056;28;1348;-53
2021/11/03 01:26:04;;;;;;;8.73;6.28;;;;;;;3.85;100.00;99441.88;678579;29;1271;-53
2021/11/03 01:26:25;;;;;;;8.23;6.43;;;;;;;3.83;100.00;99443.63;678473;29;4442;-51
2021/11/03 01:26:45;;;;;;;8.70;6.40;;;;;;;3.81;100.00;99440.13;677652;28;3608;-50
2021/11/03 01:27:06;;;;;;;9.07;6.63;;;;;;;3.78;100.00;99443.59;678186;29;1746;-52
2021/11/03 01:27:26;;;;;;;9.40;7.05;;;;;;;3.73;100.00;99445.31;678353;29;1282;-52
2021/11/03 01:27:47;;;;;;;10.10;7.30;;;;;;;3.69;100.00;99444.41;678752;28;1338;-52
2021/11/03 01:28:10;;;;;;;9.68;6.86;;;;;;;3.68;100.00;99431.50;681335;28;1256;-51
2021/11/03 01:28:30;;;;;;;9.70;7.22;;;;;;;3.64;100.00;99435.81;680937;28;5501;-51
2021/11/03 01:28:52;;;;;;;10.35;7.13;;;;;;;3.63;100.00;99436.66;681064;28;1049;-51
2021/11/03 01:29:12;;;;;;;10.80;7.28;;;;;;;3.64;100.00;99438.38;681753;28;3354;-50
2021/11/03 01:29:33;;;;;;;10.57;7.20;;;;;;;3.64;100.00;99435.81;678164;28;3854;-51
2021/11/03 01:29:53;;;;;;;10.77;7.23;;;;;;;3.70;100.00;99435.81;678427;29;1179;-49
2021/11/03 01:30:16;;;;;;;9.98;7.05;;;;;;;3.80;100.00;99435.84;679130;28;1183;-50
2021/11/03 01:30:37;;;;;;;9.95;7.10;;;;;;;3.76;100.00;99432.38;680139;28;1202;-50
2021/11/03 01:30:57;;;;;;;9.82;7.13;;;;;;;3.75;100.00;99438.41;678359;28;1262;-51
2021/11/03 01:31:18;;;;;;;9.70;7.00;;;;;;;3.75;100.00;99433.22;679612;28;1241;-52
2021/11/03 01:31:40;;;;;;;10.30;7.10;;;;;;;3.75;100.00;99434.13;676342;28;4826;-51
2021/11/03 01:32:00;;;;;;;9.67;7.07;;;;;;;3.80;100.00;99430.69;677895;28;1983;-49
2021/11/03 01:32:20;;;;;;;10.05;6.88;;;;;;;3.74;100.00;99426.34;675940;29;1954;-50
2021/11/03 01:32:41;;;;;;;10.10;6.87;;;;;;;3.66;100.00;99426.31;675557;28;4410;-52
2021/11/03 01:33:03;;;;;;;9.27;6.80;;;;;;;3.60;100.00;99428.91;678527;28;1177;-49
2021/11/03 01:33:23;;;;;;;9.95;6.80;;;;;;;3.57;100.00;99423.69;681998;28;2117;-51
2021/11/03 01:33:44;;;;;;;10.43;6.80;;;;;;;3.56;100.00;99425.44;679527;28;1245;-51
2021/11/03 01:34:05;;;;;;;9.90;6.97;;;;;;;3.61;100.00;99425.44;679237;28;1214;-51
2021/11/03 01:34:26;;;;;;;10.30;7.07;;;;;;;3.69;100.00;99428.91;677090;29;4603;-51
2021/11/03 01:34:46;;;;;;;9.07;6.70;;;;;;;3.75;100.00;99426.34;679228;29;1295;-52
2021/11/03 01:35:07;;;;;;;9.70;7.17;;;;;;;3.70;100.00;99425.47;676907;28;1888;-51
2021/11/03 01:35:28;;;;;;;10.45;7.10;;;;;;;3.76;100.00;99429.81;672619;29;3614;-52
2021/11/03 01:35:49;;;;;;;10.02;7.00;;;;;;;3.84;100.00;99425.50;674587;29;1092;-51
2021/11/03 01:36:11;;;;;;;9.52;6.80;;;;;;;3.81;100.00;99427.22;676121;29;1473;-50
2021/11/03 01:36:33;;;;;;;10.85;7.30;;;;;;;3.79;100.00;99426.38;675276;29;1300;-51
2021/11/03 01:36:53;;;;;;;10.48;7.20;;;;;;;3.79;100.00;99426.38;671819;29;1186;-53
2021/11/03 01:37:13;;;;;;;9.75;7.25;;;;;;;3.75;100.00;99423.78;672347;29;1149;-53
2021/11/03 01:37:35;;;;;;;9.87;7.07;;;;;;;3.77;100.00;99431.53;672731;29;4537;-50
2021/11/03 01:37:56;;;;;;;11.02;6.70;;;;;;;3.72;100.00;99426.34;676446;29;1276;-53
2021/11/03 01:38:18;;;;;;;9.68;6.72;;;;;;;3.67;100.00;99427.19;678733;28;2040;-51
2021/11/03 01:38:39;;;;;;;10.23;7.13;;;;;;;3.66;100.00;99425.47;680426;28;4068;-52
2021/11/03 01:38:59;;;;;;;10.43;7.28;;;;;;;3.65;100.00;99422.00;681022;28;1256;-52
2021/11/03 01:39:20;;;;;;;10.45;7.20;;;;;;;3.65;100.00;99415.97;680613;28;3833;-50
2021/11/03 01:39:41;;;;;;;9.65;7.13;;;;;;;3.62;100.00;99422.00;678655;28;1496;-51
2021/11/03 01:40:06;;;;;;;10.43;7.30;;;;;;;3.58;100.00;99418.53;676698;28;1305;-53
2021/11/03 01:40:30;;;;;;;10.55;7.35;;;;;;;3.54;100.00;99418.53;675395;29;4596;-53
2021/11/03 01:40:51;;;;;;;9.80;7.40;;;;;;;3.54;100.00;99418.53;673516;29;1155;-51
2021/11/03 01:41:11;;;;;;;10.43;7.47;;;;;;;3.54;100.00;99418.53;671297;29;1828;-51
2021/11/03 01:41:33;;;;;;;10.30;7.25;;;;;;;3.54;100.00;99415.94;671957;29;2142;-50